Terminal Aerodrome Forecast
Issued by NWS

Home | Current Version | Previous Version | Graphics & Text | Print | Product List | Glossary On
Versions: 1 2 3 4 5 6 7 8 9 10 11 12 13 14 15 16
839
FTUS43 KGRB 230831 AAA
TAFAUW
TAF AMD
KAUW 230831Z 2309/2406 VRB03KT 1 1/2SM BR BKN250
      TEMPO 2309/2310 3/4SM BR SCT003
     FM231000 VRB03KT 2SM BR SCT250
      TEMPO 2310/2313 1/2SM FG SCT003
     FM231300 26002KT P6SM SCT250
     FM231600 23007KT P6SM BKN035
     FM232200 21005KT P6SM SCT250=

USA.gov is the U.S. government's official web portal to all federal, state and local government web resources and services.